Time;durP1;ratioP1;P1;durP2;ratioP2;P2;SDS_P1;SDS_P2;PMS_P1;PMS_P2;Temp;Humidity;BMP_temperature;BMP_pressure;BME280_temperature;BME280_humidity;BME280_pressure;Samples;Min_cycle;Max_cycle;Signal;HPM_P1;HPM_P2
2023/05/05 00:02:11;;;;;;;10.63;6.00;;;;;;;;;;5046120;28;20210;-67
2023/05/05 00:04:37;;;;;;;10.18;5.22;;;;;;;;;;5040270;28;20189;-67
2023/05/05 00:07:02;;;;;;;11.40;5.63;;;;;;;;;;5035740;28;20269;-67
2023/05/05 00:09:28;;;;;;;9.35;5.82;;;;;;;;;;5050272;28;20204;-67
2023/05/05 00:11:54;;;;;;;8.10;5.97;;;;;;;;;;5050757;28;20596;-67
2023/05/05 00:14:19;;;;;;;9.52;6.18;;;;;;;;;;5045738;28;20304;-67
2023/05/05 00:16:45;;;;;;;10.43;5.43;;;;;;;;;;5043672;28;20196;-67
2023/05/05 00:19:10;;;;;;;14.98;6.43;;;;;;;;;;5048503;28;20259;-68
2023/05/05 00:21:35;;;;;;;9.38;5.93;;;;;;;;;;5042796;28;20605;-67
2023/05/05 00:24:01;;;;;;;11.05;6.13;;;;;;;;;;5034077;28;20179;-67
2023/05/05 00:26:27;;;;;;;8.70;6.03;;;;;;;;;;5033810;28;20194;-67
2023/05/05 00:28:52;;;;;;;14.43;6.20;;;;;;;;;;5033204;28;20285;-67
2023/05/05 00:31:17;;;;;;;9.50;6.13;;;;;;;;;;5039462;28;20652;-67
2023/05/05 00:33:43;;;;;;;12.05;6.78;;;;;;;;;;5035463;28;20196;-68
2023/05/05 00:36:08;;;;;;;13.55;6.25;;;;;;;;;;5049416;28;20273;-67
2023/05/05 00:38:34;;;;;;;8.38;6.38;;;;;;;;;;5042792;28;20281;-68
2023/05/05 00:40:59;;;;;;;11.18;6.63;;;;;;;;;;5030997;28;20209;-68
2023/05/05 00:43:25;;;;;;;10.07;6.07;;;;;;;;;;5041186;28;20200;-67
2023/05/05 00:46:00;;;;;;;14.20;6.72;;;;;;;;;;5045514;28;20290;-68
2023/05/05 00:48:30;;;;;;;15.65;6.68;;;;;;;;;;5050385;28;20192;-67
2023/05/05 00:50:56;;;;;;;9.68;6.47;;;;;;;;;;5036321;28;20190;-68
2023/05/05 00:53:23;;;;;;;11.70;6.15;;;;;;;;;;5037889;28;20661;-67
2023/05/05 00:55:48;;;;;;;17.83;6.68;;;;;;;;;;5036192;28;20232;-67
2023/05/05 00:58:14;;;;;;;14.43;6.93;;;;;;;;;;5045771;28;20839;-68
2023/05/05 01:00:40;;;;;;;12.27;6.65;;;;;;;;;;5039196;28;20224;-68
2023/05/05 01:03:06;;;;;;;11.57;6.95;;;;;;;;;;5042688;28;20192;-68
2023/05/05 01:06:09;;;;;;;11.23;6.95;;;;;;;;;;5045547;28;20186;-66
2023/05/05 01:09:01;;;;;;;12.65;7.32;;;;;;;;;;5039772;28;20585;-66
2023/05/05 01:11:50;;;;;;;10.98;7.22;;;;;;;;;;5037785;28;20659;-66
2023/05/05 01:14:19;;;;;;;12.90;7.18;;;;;;;;;;5045684;28;20224;-67
2023/05/05 01:17:09;;;;;;;9.63;6.85;;;;;;;;;;5046130;28;20625;-66
2023/05/05 01:19:54;;;;;;;11.65;7.18;;;;;;;;;;5046840;28;20316;-66
2023/05/05 01:22:23;;;;;;;11.73;7.13;;;;;;;;;;5030531;28;20201;-66
2023/05/05 01:25:07;;;;;;;9.82;7.20;;;;;;;;;;5038659;28;20617;-67
2023/05/05 01:27:48;;;;;;;8.95;7.30;;;;;;;;;;5048406;28;20181;-67
2023/05/05 01:30:27;;;;;;;10.98;6.88;;;;;;;;;;5035576;28;20250;-67
2023/05/05 01:32:58;;;;;;;13.35;7.85;;;;;;;;;;5045649;28;20198;-67
2023/05/05 01:35:38;;;;;;;10.60;6.68;;;;;;;;;;5049724;28;20223;-67
2023/05/05 01:38:13;;;;;;;13.05;7.20;;;;;;;;;;5030117;28;20233;-67
2023/05/05 01:40:48;;;;;;;11.70;6.93;;;;;;;;;;5043643;28;20226;-67
2023/05/05 01:43:17;;;;;;;12.05;7.20;;;;;;;;;;5038118;28;20238;-68
2023/05/05 01:45:43;;;;;;;10.45;7.25;;;;;;;;;;5044396;28;20252;-67
2023/05/05 01:48:11;;;;;;;11.88;8.10;;;;;;;;;;5036113;28;20209;-67
2023/05/05 01:50:40;;;;;;;10.98;7.45;;;;;;;;;;5049473;28;20216;-67
2023/05/05 01:53:08;;;;;;;11.73;7.57;;;;;;;;;;5050175;28;20239;-67
2023/05/05 01:55:35;;;;;;;12.60;8.20;;;;;;;;;;5049858;28;20244;-67
2023/05/05 01:58:02;;;;;;;11.02;7.60;;;;;;;;;;5046775;28;20234;-67
2023/05/05 02:00:29;;;;;;;11.02;8.10;;;;;;;;;;5049966;28;20221;-67
2023/05/05 02:02:56;;;;;;;12.98;7.72;;;;;;;;;;5052376;28;20197;-67
2023/05/05 02:05:23;;;;;;;11.82;8.15;;;;;;;;;;5049581;28;20193;-67
2023/05/05 02:07:51;;;;;;;10.48;7.60;;;;;;;;;;5049157;28;20276;-67
2023/05/05 02:10:17;;;;;;;10.57;7.18;;;;;;;;;;5029390;28;20251;-67
2023/05/05 02:12:44;;;;;;;10.02;7.57;;;;;;;;;;5039950;28;20189;-67
2023/05/05 02:15:10;;;;;;;10.65;7.30;;;;;;;;;;5034193;28;20537;-67
2023/05/05 02:17:39;;;;;;;14.57;7.90;;;;;;;;;;5049284;28;20186;-67
2023/05/05 02:20:06;;;;;;;13.52;8.20;;;;;;;;;;5040352;28;20185;-67
2023/05/05 02:22:31;;;;;;;10.95;7.80;;;;;;;;;;5038607;28;20676;-67
2023/05/05 02:24:57;;;;;;;8.57;7.53;;;;;;;;;;5029357;28;20178;-68
2023/05/05 02:27:23;;;;;;;12.93;8.02;;;;;;;;;;5044853;28;20272;-65
2023/05/05 02:29:52;;;;;;;10.00;7.57;;;;;;;;;;5044899;28;20274;-67
2023/05/05 02:32:26;;;;;;;14.18;7.65;;;;;;;;;;5047288;28;20198;-67
2023/05/05 02:34:53;;;;;;;12.02;7.80;;;;;;;;;;5035514;28;20296;-67
2023/05/05 02:37:22;;;;;;;10.10;7.85;;;;;;;;;;5035185;28;20657;-67
2023/05/05 02:39:57;;;;;;;13.35;8.05;;;;;;;;;;5043625;28;20555;-67
2023/05/05 02:42:30;;;;;;;10.00;7.65;;;;;;;;;;5038435;28;20276;-68
2023/05/05 02:44:58;;;;;;;12.27;7.30;;;;;;;;;;5043680;28;20181;-68
2023/05/05 02:47:33;;;;;;;10.80;8.15;;;;;;;;;;5041409;28;20217;-68
2023/05/05 02:49:59;;;;;;;10.93;7.78;;;;;;;;;;5040350;28;20600;-68
2023/05/05 02:52:24;;;;;;;12.93;8.13;;;;;;;;;;5027661;28;20186;-68
2023/05/05 02:54:50;;;;;;;9.77;7.30;;;;;;;;;;5039168;28;21503;-68
2023/05/05 02:57:18;;;;;;;16.42;8.73;;;;;;;;;;5047895;28;20196;-68
2023/05/05 02:59:51;;;;;;;12.32;8.32;;;;;;;;;;5044385;28;20198;-68
2023/05/05 03:02:23;;;;;;;11.90;8.48;;;;;;;;;;5033563;28;20198;-68
2023/05/05 03:05:05;;;;;;;10.43;7.85;;;;;;;;;;5041749;28;20189;-68
2023/05/05 03:07:37;;;;;;;9.45;8.20;;;;;;;;;;5039881;28;20647;-68
2023/05/05 03:10:08;;;;;;;14.63;7.90;;;;;;;;;;5046678;28;20272;-68
2023/05/05 03:12:58;;;;;;;14.45;8.30;;;;;;;;;;5036595;28;20194;-68
2023/05/05 03:15:33;;;;;;;12.05;8.70;;;;;;;;;;5038910;28;20554;-72
2023/05/05 03:18:00;;;;;;;15.45;8.63;;;;;;;;;;5039882;28;20852;-68
2023/05/05 03:20:26;;;;;;;14.82;9.07;;;;;;;;;;5030430;28;20723;-68
2023/05/05 03:22:51;;;;;;;15.35;8.52;;;;;;;;;;5041628;28;20181;-68
2023/05/05 03:25:17;;;;;;;15.70;8.60;;;;;;;;;;5046886;28;20187;-68
2023/05/05 03:27:42;;;;;;;10.05;8.48;;;;;;;;;;5047673;28;20262;-68
2023/05/05 03:30:08;;;;;;;12.98;8.68;;;;;;;;;;5044203;28;20278;-68
2023/05/05 03:32:34;;;;;;;14.25;8.85;;;;;;;;;;5028181;28;20193;-68
2023/05/05 03:34:59;;;;;;;10.38;8.30;;;;;;;;;;5035041;28;20206;-69
2023/05/05 03:37:25;;;;;;;10.98;8.63;;;;;;;;;;5041364;28;20247;-68
2023/05/05 03:39:50;;;;;;;10.50;7.85;;;;;;;;;;5038841;28;20193;-68
2023/05/05 03:42:15;;;;;;;12.02;8.35;;;;;;;;;;5043183;28;20198;-68
2023/05/05 03:44:41;;;;;;;10.93;8.68;;;;;;;;;;5028817;28;20190;-68
2023/05/05 03:47:06;;;;;;;13.35;9.07;;;;;;;;;;5032347;28;20237;-68
2023/05/05 03:49:31;;;;;;;11.63;8.75;;;;;;;;;;5045535;28;20189;-68
2023/05/05 03:51:57;;;;;;;13.25;8.95;;;;;;;;;;5035021;28;20225;-68
2023/05/05 03:54:22;;;;;;;10.85;8.75;;;;;;;;;;5045322;28;20833;-68
2023/05/05 03:56:48;;;;;;;12.77;9.18;;;;;;;;;;5032016;28;20345;-68
2023/05/05 03:59:13;;;;;;;12.85;8.48;;;;;;;;;;5039956;28;20193;-68
2023/05/05 04:01:38;;;;;;;13.88;8.85;;;;;;;;;;5027866;28;20695;-68
2023/05/05 04:04:04;;;;;;;12.30;9.38;;;;;;;;;;5035615;28;20190;-68
2023/05/05 04:06:30;;;;;;;13.07;9.50;;;;;;;;;;5045536;28;20194;-68
2023/05/05 04:08:56;;;;;;;12.15;8.98;;;;;;;;;;5047473;28;20236;-68
2023/05/05 04:11:21;;;;;;;14.63;9.80;;;;;;;;;;5033021;28;20260;-68
2023/05/05 04:13:48;;;;;;;14.75;9.77;;;;;;;;;;5041208;28;20194;-68
2023/05/05 04:16:14;;;;;;;15.63;9.75;;;;;;;;;;5047627;28;20185;-68
2023/05/05 04:18:39;;;;;;;16.40;9.02;;;;;;;;;;5045134;28;20699;-68
2023/05/05 04:21:05;;;;;;;16.73;9.00;;;;;;;;;;5043002;28;20209;-68
2023/05/05 04:23:30;;;;;;;11.88;9.27;;;;;;;;;;5040407;28;20213;-68
2023/05/05 04:25:56;;;;;;;18.00;8.98;;;;;;;;;;5045772;28;20194;-68
2023/05/05 04:28:21;;;;;;;11.23;8.40;;;;;;;;;;5030397;28;20853;-68
2023/05/05 04:30:47;;;;;;;11.52;8.63;;;;;;;;;;5043404;28;20189;-68
2023/05/05 04:33:12;;;;;;;11.13;8.75;;;;;;;;;;5047475;28;20532;-68
2023/05/05 04:35:37;;;;;;;15.40;9.02;;;;;;;;;;5041281;28;20210;-68
2023/05/05 04:38:03;;;;;;;15.10;9.35;;;;;;;;;;5037524;28;20186;-69
2023/05/05 04:40:28;;;;;;;14.23;8.68;;;;;;;;;;5041414;28;21288;-68
2023/05/05 04:42:54;;;;;;;11.35;8.10;;;;;;;;;;5026901;28;20194;-68
2023/05/05 04:45:19;;;;;;;11.43;7.82;;;;;;;;;;5040107;28;20299;-68
2023/05/05 04:47:45;;;;;;;15.48;8.75;;;;;;;;;;5041467;28;20298;-68
2023/05/05 04:50:10;;;;;;;15.50;9.77;;;;;;;;;;5037875;28;20197;-68
2023/05/05 04:52:36;;;;;;;11.15;9.40;;;;;;;;;;5047500;28;20182;-68
2023/05/05 04:55:02;;;;;;;12.82;9.40;;;;;;;;;;5050789;28;20282;-68
2023/05/05 04:57:28;;;;;;;17.88;10.10;;;;;;;;;;5033746;28;20190;-68
2023/05/05 04:59:54;;;;;;;16.05;9.60;;;;;;;;;;5041708;28;20759;-68
2023/05/05 05:02:19;;;;;;;16.42;10.35;;;;;;;;;;5045797;28;20281;-68
2023/05/05 05:04:45;;;;;;;19.52;10.65;;;;;;;;;;5039492;28;20689;-68
2023/05/05 05:07:11;;;;;;;17.55;11.85;;;;;;;;;;5050610;28;20189;-68
2023/05/05 05:09:36;;;;;;;15.43;11.60;;;;;;;;;;5037714;28;20186;-67
2023/05/05 05:12:02;;;;;;;18.13;11.25;;;;;;;;;;5038073;28;20182;-68
2023/05/05 05:14:28;;;;;;;16.02;11.00;;;;;;;;;;5043801;28;20218;-68
2023/05/05 05:16:54;;;;;;;22.42;11.98;;;;;;;;;;5054986;28;20247;-68
2023/05/05 05:19:19;;;;;;;20.42;12.60;;;;;;;;;;5046113;28;20194;-68
2023/05/05 05:21:44;;;;;;;21.95;12.48;;;;;;;;;;5043704;28;20189;-68
2023/05/05 05:24:10;;;;;;;19.33;12.93;;;;;;;;;;5047228;28;20197;-68
2023/05/05 05:26:36;;;;;;;23.33;12.15;;;;;;;;;;5049345;28;20641;-68
2023/05/05 05:29:02;;;;;;;17.88;12.63;;;;;;;;;;5043558;28;20190;-68
2023/05/05 05:31:27;;;;;;;16.50;11.77;;;;;;;;;;5036590;28;20190;-68
2023/05/05 05:33:52;;;;;;;18.67;12.65;;;;;;;;;;5029775;28;20193;-67
2023/05/05 05:36:18;;;;;;;15.32;12.10;;;;;;;;;;5047685;28;20671;-67
2023/05/05 05:38:43;;;;;;;15.50;11.90;;;;;;;;;;5048083;28;20201;-67
2023/05/05 05:41:08;;;;;;;16.58;12.23;;;;;;;;;;5049718;28;20221;-68
2023/05/05 05:43:34;;;;;;;17.20;12.15;;;;;;;;;;5046393;28;20201;-68
2023/05/05 05:45:59;;;;;;;14.70;12.00;;;;;;;;;;5048580;28;20627;-68
2023/05/05 05:48:27;;;;;;;19.10;13.23;;;;;;;;;;5037470;28;20186;-68
2023/05/05 05:50:53;;;;;;;17.77;12.25;;;;;;;;;;5042386;28;20193;-68
2023/05/05 05:53:18;;;;;;;17.25;13.40;;;;;;;;;;5049533;28;20197;-68
2023/05/05 05:55:45;;;;;;;17.63;12.88;;;;;;;;;;5046557;28;20556;-67
2023/05/05 05:58:10;;;;;;;16.92;12.93;;;;;;;;;;5038794;28;20189;-68
2023/05/05 06:00:36;;;;;;;15.23;12.25;;;;;;;;;;5047624;28;20244;-67
2023/05/05 06:03:01;;;;;;;17.00;13.20;;;;;;;;;;5036401;28;20284;-68
2023/05/05 06:05:27;;;;;;;16.50;12.93;;;;;;;;;;5038235;28;20182;-67
2023/05/05 06:07:52;;;;;;;19.30;13.45;;;;;;;;;;5041846;28;20212;-68
2023/05/05 06:10:17;;;;;;;20.23;13.85;;;;;;;;;;5040888;28;20190;-67
2023/05/05 06:12:43;;;;;;;17.42;12.80;;;;;;;;;;5050654;28;20660;-67
2023/05/05 06:15:08;;;;;;;21.00;13.55;;;;;;;;;;5038326;28;20232;-68
2023/05/05 06:17:34;;;;;;;19.75;13.27;;;;;;;;;;5038884;28;20723;-68
2023/05/05 06:19:59;;;;;;;18.85;13.70;;;;;;;;;;5039656;28;20186;-68
2023/05/05 06:22:25;;;;;;;18.98;14.07;;;;;;;;;;5048849;28;20193;-68
2023/05/05 06:24:50;;;;;;;19.52;13.52;;;;;;;;;;5037375;28;20657;-68
2023/05/05 06:27:15;;;;;;;22.15;14.10;;;;;;;;;;5042915;28;20237;-68
2023/05/05 06:29:41;;;;;;;21.00;13.65;;;;;;;;;;5031353;28;20701;-67
2023/05/05 06:32:07;;;;;;;18.10;13.82;;;;;;;;;;5046779;28;20267;-68
2023/05/05 06:34:33;;;;;;;19.40;13.88;;;;;;;;;;5046757;28;20197;-67
2023/05/05 06:36:58;;;;;;;20.73;14.27;;;;;;;;;;5050229;28;20624;-67
2023/05/05 06:39:23;;;;;;;22.58;14.75;;;;;;;;;;5034107;28;20255;-68
2023/05/05 06:41:49;;;;;;;17.10;13.98;;;;;;;;;;5048700;28;20225;-68
2023/05/05 06:44:14;;;;;;;20.42;13.77;;;;;;;;;;5041837;28;20192;-68
2023/05/05 06:46:40;;;;;;;20.10;13.98;;;;;;;;;;5036784;28;20307;-68
2023/05/05 06:49:05;;;;;;;19.67;12.73;;;;;;;;;;5045687;28;20193;-68
2023/05/05 06:51:30;;;;;;;18.42;12.52;;;;;;;;;;5043392;28;20213;-67
2023/05/05 06:53:56;;;;;;;16.65;11.35;;;;;;;;;;5047980;28;20614;-67
2023/05/05 06:56:22;;;;;;;18.48;12.38;;;;;;;;;;5048120;28;20211;-68
2023/05/05 06:58:48;;;;;;;16.15;11.85;;;;;;;;;;5038956;28;20680;-67
2023/05/05 07:01:13;;;;;;;15.20;12.48;;;;;;;;;;5045847;28;20209;-67
2023/05/05 07:03:38;;;;;;;14.73;11.68;;;;;;;;;;5041623;28;20547;-68
2023/05/05 07:06:04;;;;;;;17.02;11.50;;;;;;;;;;5040858;28;20500;-67
2023/05/05 07:08:29;;;;;;;15.38;10.50;;;;;;;;;;5049051;28;20303;-67
2023/05/05 07:10:54;;;;;;;13.95;10.30;;;;;;;;;;5047276;28;20193;-68
2023/05/05 07:13:20;;;;;;;13.93;9.05;;;;;;;;;;5030358;28;20196;-66
2023/05/05 07:15:45;;;;;;;16.63;8.90;;;;;;;;;;5046011;28;20201;-66
2023/05/05 07:18:20;;;;;;;15.65;9.18;;;;;;;;;;5047430;28;20277;-66
2023/05/05 07:20:45;;;;;;;14.63;10.20;;;;;;;;;;5037338;28;20196;-68
2023/05/05 07:23:11;;;;;;;15.07;10.43;;;;;;;;;;5047546;28;20303;-67
2023/05/05 07:25:37;;;;;;;16.38;10.07;;;;;;;;;;5047843;28;20279;-67
2023/05/05 07:28:03;;;;;;;14.85;9.40;;;;;;;;;;5048072;28;20208;-67
2023/05/05 07:30:28;;;;;;;13.38;9.77;;;;;;;;;;5043021;28;20218;-68
2023/05/05 07:32:54;;;;;;;16.90;10.07;;;;;;;;;;5040078;28;20629;-68
2023/05/05 07:35:19;;;;;;;15.02;9.18;;;;;;;;;;5037451;28;20210;-67
2023/05/05 07:37:45;;;;;;;13.55;9.15;;;;;;;;;;5042097;28;20285;-67
2023/05/05 07:40:11;;;;;;;14.82;9.43;;;;;;;;;;5033830;28;20221;-67
2023/05/05 07:42:36;;;;;;;15.70;8.80;;;;;;;;;;5042467;28;20213;-67
2023/05/05 07:45:03;;;;;;;16.20;8.98;;;;;;;;;;5039755;28;20775;-67
2023/05/05 07:47:28;;;;;;;11.82;8.38;;;;;;;;;;5045271;28;20262;-67
2023/05/05 07:49:54;;;;;;;12.65;9.38;;;;;;;;;;5044400;28;20189;-68
2023/05/05 07:52:19;;;;;;;12.50;9.25;;;;;;;;;;5045601;28;20197;-67
2023/05/05 07:54:46;;;;;;;13.65;10.32;;;;;;;;;;5048000;28;20216;-69
2023/05/05 07:57:11;;;;;;;14.43;10.05;;;;;;;;;;5042939;28;20204;-67
2023/05/05 07:59:39;;;;;;;15.18;9.82;;;;;;;;;;5041899;28;20190;-68
2023/05/05 08:02:05;;;;;;;12.60;10.23;;;;;;;;;;5035768;28;20281;-68
2023/05/05 08:04:30;;;;;;;17.98;10.88;;;;;;;;;;5036958;28;20686;-68
2023/05/05 08:06:56;;;;;;;18.13;11.27;;;;;;;;;;5035490;28;20694;-68
2023/05/05 08:09:21;;;;;;;14.27;11.32;;;;;;;;;;5039598;28;20197;-68
2023/05/05 08:11:46;;;;;;;17.75;12.38;;;;;;;;;;5047400;28;20250;-67
2023/05/05 08:14:12;;;;;;;18.38;11.48;;;;;;;;;;5047806;28;20221;-67
2023/05/05 08:16:37;;;;;;;14.27;10.82;;;;;;;;;;5046530;28;20201;-67
2023/05/05 08:19:02;;;;;;;16.10;12.15;;;;;;;;;;5044034;28;20213;-68
2023/05/05 08:21:28;;;;;;;18.70;12.75;;;;;;;;;;5046676;28;20263;-67
2023/05/05 08:23:53;;;;;;;16.95;12.05;;;;;;;;;;5048150;28;20197;-68
2023/05/05 08:26:19;;;;;;;16.58;12.02;;;;;;;;;;5051029;28;20189;-68
2023/05/05 08:28:45;;;;;;;16.60;12.60;;;;;;;;;;5051419;28;20200;-68
2023/05/05 08:31:10;;;;;;;16.60;11.93;;;;;;;;;;5060202;28;20197;-68
2023/05/05 08:33:36;;;;;;;19.42;12.52;;;;;;;;;;5049973;28;20327;-69
2023/05/05 08:36:01;;;;;;;21.50;11.60;;;;;;;;;;5048279;28;20296;-68
2023/05/05 08:38:26;;;;;;;18.58;11.80;;;;;;;;;;5043542;28;20189;-68
2023/05/05 08:40:52;;;;;;;15.65;11.90;;;;;;;;;;5051366;28;20190;-68
2023/05/05 08:43:22;;;;;;;15.85;10.27;;;;;;;;;;5040217;28;20206;-66
2023/05/05 08:45:50;;;;;;;16.40;10.30;;;;;;;;;;5047612;28;20586;-67
2023/05/05 08:48:18;;;;;;;14.40;9.93;;;;;;;;;;5041306;28;20186;-68
2023/05/05 08:50:48;;;;;;;14.88;9.77;;;;;;;;;;5033077;28;20675;-68
2023/05/05 08:53:29;;;;;;;12.23;9.38;;;;;;;;;;5051316;28;20193;-67
2023/05/05 08:55:55;;;;;;;17.30;9.93;;;;;;;;;;5048450;28;20209;-67
2023/05/05 08:58:24;;;;;;;12.48;9.00;;;;;;;;;;5054342;28;20186;-68
2023/05/05 09:00:51;;;;;;;13.30;9.32;;;;;;;;;;5045487;28;20511;-68
2023/05/05 09:03:16;;;;;;;12.43;9.05;;;;;;;;;;5047169;28;20197;-68
2023/05/05 09:05:43;;;;;;;12.20;8.90;;;;;;;;;;5031489;28;20299;-68
2023/05/05 09:08:11;;;;;;;11.55;8.95;;;;;;;;;;5036177;28;20273;-68
2023/05/05 09:10:40;;;;;;;14.02;9.85;;;;;;;;;;5050869;28;20451;-68
2023/05/05 09:13:06;;;;;;;14.77;10.48;;;;;;;;;;5050211;28;20617;-69
2023/05/05 09:15:31;;;;;;;14.68;9.25;;;;;;;;;;5043532;28;20294;-68
2023/05/05 09:17:58;;;;;;;11.98;8.93;;;;;;;;;;5038908;28;20640;-70
2023/05/05 09:20:32;;;;;;;13.73;8.90;;;;;;;;;;5048918;28;20268;-68
2023/05/05 09:23:06;;;;;;;11.75;8.75;;;;;;;;;;5050511;28;20193;-69
2023/05/05 09:25:31;;;;;;;12.35;8.52;;;;;;;;;;5038687;28;20176;-70
2023/05/05 09:27:57;;;;;;;11.50;8.25;;;;;;;;;;5038683;28;20260;-68
2023/05/05 09:30:24;;;;;;;10.25;7.05;;;;;;;;;;5048856;28;20681;-69
2023/05/05 09:32:51;;;;;;;10.65;6.90;;;;;;;;;;5050057;28;20549;-69
2023/05/05 09:35:17;;;;;;;10.25;6.07;;;;;;;;;;5036549;28;20249;-69
2023/05/05 09:37:43;;;;;;;11.75;7.35;;;;;;;;;;5045444;28;20437;-69
2023/05/05 09:40:11;;;;;;;11.48;6.70;;;;;;;;;;5029934;28;20194;-69
2023/05/05 09:42:38;;;;;;;11.07;5.05;;;;;;;;;;5038382;28;20365;-69
2023/05/05 09:45:17;;;;;;;6.78;3.38;;;;;;;;;;5049349;28;20228;-69
2023/05/05 09:47:47;;;;;;;7.90;4.65;;;;;;;;;;5039948;28;20201;-69
2023/05/05 09:50:14;;;;;;;9.45;5.10;;;;;;;;;;5033613;28;20496;-68
2023/05/05 09:52:41;;;;;;;9.93;4.00;;;;;;;;;;5044145;28;20622;-69
2023/05/05 09:55:16;;;;;;;7.57;3.70;;;;;;;;;;5050231;28;20213;-69
2023/05/05 09:57:41;;;;;;;3.15;2.33;;;;;;;;;;5050853;28;20185;-69
2023/05/05 10:00:07;;;;;;;4.43;1.50;;;;;;;;;;5037894;28;20189;-67
2023/05/05 10:02:36;;;;;;;4.10;1.70;;;;;;;;;;5035748;28;20189;-68
2023/05/05 10:05:11;;;;;;;4.53;2.17;;;;;;;;;;5034793;28;20563;-68
2023/05/05 10:07:38;;;;;;;5.82;1.75;;;;;;;;;;5049623;28;20205;-69
2023/05/05 10:10:06;;;;;;;5.00;2.08;;;;;;;;;;5048686;28;20185;-68
2023/05/05 10:12:35;;;;;;;4.28;1.90;;;;;;;;;;5050063;28;20205;-68
2023/05/05 10:15:02;;;;;;;4.80;1.60;;;;;;;;;;5045929;28;20202;-68
2023/05/05 10:17:30;;;;;;;5.57;1.83;;;;;;;;;;5045874;28;20212;-69
2023/05/05 10:19:59;;;;;;;4.90;1.60;;;;;;;;;;5044724;28;20189;-68
2023/05/05 10:22:27;;;;;;;6.75;2.17;;;;;;;;;;5049758;28;20240;-66
2023/05/05 10:25:00;;;;;;;3.72;1.70;;;;;;;;;;5048256;28;20182;-69
2023/05/05 10:27:27;;;;;;;2.67;2.08;;;;;;;;;;5049457;28;20189;-67
2023/05/05 10:30:06;;;;;;;4.68;1.95;;;;;;;;;;5035820;28;20208;-68
2023/05/05 10:32:48;;;;;;;6.25;2.38;;;;;;;;;;5039816;28;20205;-68
2023/05/05 10:35:19;;;;;;;5.70;2.60;;;;;;;;;;5043859;28;20622;-68
2023/05/05 10:37:45;;;;;;;4.78;1.88;;;;;;;;;;5041539;28;20622;-69
2023/05/05 10:40:12;;;;;;;5.00;1.73;;;;;;;;;;5033517;28;20578;-68
2023/05/05 10:42:38;;;;;;;2.92;1.95;;;;;;;;;;5040925;28;20185;-70
2023/05/05 10:45:05;;;;;;;5.78;2.70;;;;;;;;;;5049158;28;20713;-69
2023/05/05 10:47:32;;;;;;;3.47;1.90;;;;;;;;;;5036414;28;20190;-69
2023/05/05 10:50:00;;;;;;;3.28;1.60;;;;;;;;;;5041772;28;20201;-68
2023/05/05 10:53:01;;;;;;;4.05;1.95;;;;;;;;;;5035489;28;20221;-69
2023/05/05 10:55:40;;;;;;;6.18;1.88;;;;;;;;;;5043147;28;20248;-69
2023/05/05 10:58:05;;;;;;;5.15;1.65;;;;;;;;;;5042957;28;20196;-68
2023/05/05 11:00:37;;;;;;;4.72;1.85;;;;;;;;;;5048348;28;20213;-69
2023/05/05 11:03:32;;;;;;;5.13;1.60;;;;;;;;;;5047804;28;20194;-69
2023/05/05 11:06:03;;;;;;;4.65;1.40;;;;;;;;;;5042975;28;20231;-68
2023/05/05 11:08:47;;;;;;;4.57;1.90;;;;;;;;;;5043031;28;20755;-68
2023/05/05 11:11:12;;;;;;;4.85;1.50;;;;;;;;;;5035563;28;20638;-69
2023/05/05 11:13:39;;;;;;;4.30;1.70;;;;;;;;;;5047412;28;20189;-69
2023/05/05 11:16:05;;;;;;;4.15;1.33;;;;;;;;;;5036991;28;20673;-70
2023/05/05 11:18:34;;;;;;;5.68;1.75;;;;;;;;;;5047084;28;20273;-69
2023/05/05 11:21:00;;;;;;;6.60;1.60;;;;;;;;;;5042487;28;20205;-70
2023/05/05 11:23:25;;;;;;;4.95;1.35;;;;;;;;;;5047295;28;20189;-69
2023/05/05 11:25:52;;;;;;;5.70;1.80;;;;;;;;;;5048544;28;20683;-70
2023/05/05 11:28:28;;;;;;;3.22;1.70;;;;;;;;;;5041876;28;20209;-69
2023/05/05 11:30:53;;;;;;;4.20;1.65;;;;;;;;;;5040364;28;20182;-70
2023/05/05 11:33:29;;;;;;;5.15;2.00;;;;;;;;;;5042981;28;20218;-69
2023/05/05 11:36:02;;;;;;;4.18;2.10;;;;;;;;;;5048577;28;20215;-70
2023/05/05 11:39:00;;;;;;;6.32;1.95;;;;;;;;;;5033793;28;20212;-70
2023/05/05 11:41:31;;;;;;;6.35;2.33;;;;;;;;;;5040203;28;20281;-70
2023/05/05 11:44:17;;;;;;;6.53;2.22;;;;;;;;;;5032129;28;20193;-70
2023/05/05 11:46:51;;;;;;;5.47;2.20;;;;;;;;;;5028392;28;20607;-70
2023/05/05 11:49:26;;;;;;;4.28;2.20;;;;;;;;;;5043872;28;20277;-70
2023/05/05 11:52:03;;;;;;;5.25;2.28;;;;;;;;;;5046976;28;20193;-70
2023/05/05 11:54:29;;;;;;;5.60;2.40;;;;;;;;;;5047580;28;20265;-70
2023/05/05 11:56:57;;;;;;;5.85;2.33;;;;;;;;;;5045820;28;20293;-71
2023/05/05 11:59:24;;;;;;;8.55;2.45;;;;;;;;;;5032269;28;20258;-71
2023/05/05 12:01:49;;;;;;;4.10;2.17;;;;;;;;;;5048423;28;20647;-71
2023/05/05 12:04:15;;;;;;;6.93;2.47;;;;;;;;;;5054298;28;20264;-71
2023/05/05 12:06:41;;;;;;;4.70;2.40;;;;;;;;;;5048812;28;20185;-70
2023/05/05 12:09:22;;;;;;;5.70;2.50;;;;;;;;;;5054441;28;20173;-70
2023/05/05 12:11:49;;;;;;;5.55;2.20;;;;;;;;;;5049420;28;20194;-71
2023/05/05 12:14:14;;;;;;;7.22;2.63;;;;;;;;;;5047451;28;20189;-71
2023/05/05 12:16:40;;;;;;;5.53;1.92;;;;;;;;;;5055240;28;20196;-71
2023/05/05 12:19:07;;;;;;;4.25;2.10;;;;;;;;;;5052942;28;20559;-71
2023/05/05 12:21:33;;;;;;;7.25;2.20;;;;;;;;;;5039075;28;20193;-70
2023/05/05 12:23:59;;;;;;;7.05;1.92;;;;;;;;;;5033292;28;20196;-70
2023/05/05 12:26:27;;;;;;;5.15;2.10;;;;;;;;;;5034907;28;20185;-70
2023/05/05 12:28:54;;;;;;;5.78;1.98;;;;;;;;;;5050887;28;20272;-70
2023/05/05 12:31:19;;;;;;;3.75;1.90;;;;;;;;;;5052575;28;20607;-71
2023/05/05 12:33:45;;;;;;;5.47;2.38;;;;;;;;;;5051877;28;20272;-71
2023/05/05 12:36:11;;;;;;;3.45;2.03;;;;;;;;;;5044838;28;20271;-71
2023/05/05 12:38:37;;;;;;;5.55;2.00;;;;;;;;;;5034315;28;20190;-70
2023/05/05 12:41:03;;;;;;;4.45;2.20;;;;;;;;;;5053385;28;20188;-69
2023/05/05 12:43:30;;;;;;;2.95;1.20;;;;;;;;;;5052701;28;20613;-68
2023/05/05 12:46:10;;;;;;;2.67;0.90;;;;;;;;;;5054498;28;20374;-67
2023/05/05 12:48:37;;;;;;;3.33;0.70;;;;;;;;;;5053957;28;20185;-68
2023/05/05 12:51:13;;;;;;;1.40;0.45;;;;;;;;;;5047266;28;20178;-69
2023/05/05 12:53:38;;;;;;;0.90;0.40;;;;;;;;;;5034019;28;20205;-69
2023/05/05 12:56:05;;;;;;;1.83;0.80;;;;;;;;;;5051564;28;20213;-69
2023/05/05 12:58:47;;;;;;;1.88;0.45;;;;;;;;;;5053437;28;20193;-69
2023/05/05 13:01:12;;;;;;;1.10;0.77;;;;;;;;;;5052194;28;20267;-68
2023/05/05 13:03:38;;;;;;;2.47;0.45;;;;;;;;;;5048076;28;20233;-68
2023/05/05 13:06:23;;;;;;;0.93;0.40;;;;;;;;;;5033074;28;20201;-68
2023/05/05 13:08:49;;;;;;;3.92;0.57;;;;;;;;;;5047821;28;20193;-70
2023/05/05 13:11:14;;;;;;;1.83;0.55;;;;;;;;;;5053496;28;20535;-67
2023/05/05 13:13:41;;;;;;;2.15;0.68;;;;;;;;;;5041380;28;20279;-67
2023/05/05 13:16:06;;;;;;;3.15;0.73;;;;;;;;;;5047277;28;20209;-74
2023/05/05 13:18:45;;;;;;;3.00;0.85;;;;;;;;;;5050423;28;20200;-77
2023/05/05 13:21:10;;;;;;;8.20;0.98;;;;;;;;;;5049090;28;20638;-77
2023/05/05 13:23:36;;;;;;;3.60;1.20;;;;;;;;;;5047251;28;20189;-78
2023/05/05 13:26:02;;;;;;;1.67;0.73;;;;;;;;;;5041577;28;20178;-75
2023/05/05 13:28:28;;;;;;;1.92;1.00;;;;;;;;;;5051332;28;20359;-77
2023/05/05 13:30:54;;;;;;;1.50;0.80;;;;;;;;;;5039725;28;20196;-79
2023/05/05 13:33:20;;;;;;;2.42;0.82;;;;;;;;;;5051806;28;20502;-78
2023/05/05 13:35:45;;;;;;;1.35;0.80;;;;;;;;;;5045594;28;20209;-80
2023/05/05 13:38:10;;;;;;;6.15;1.50;;;;;;;;;;5022351;28;20273;-80
2023/05/05 13:40:36;;;;;;;3.83;1.17;;;;;;;;;;5044829;28;20198;-80
2023/05/05 13:43:01;;;;;;;4.63;1.80;;;;;;;;;;5044512;28;20202;-79
2023/05/05 13:45:27;;;;;;;5.72;1.63;;;;;;;;;;5036031;28;20230;-78
2023/05/05 13:47:52;;;;;;;5.72;1.67;;;;;;;;;;5046852;28;20208;-79
2023/05/05 13:50:17;;;;;;;2.80;1.20;;;;;;;;;;5037998;28;20191;-81
2023/05/05 13:52:44;;;;;;;5.35;1.55;;;;;;;;;;5034386;28;20213;-81
2023/05/05 13:55:11;;;;;;;3.92;1.45;;;;;;;;;;5051329;28;20229;-80
2023/05/05 13:57:36;;;;;;;5.53;1.10;;;;;;;;;;5033238;28;20188;-80
2023/05/05 14:00:03;;;;;;;2.95;1.92;;;;;;;;;;5029699;28;20186;-79
2023/05/05 14:02:28;;;;;;;5.10;1.58;;;;;;;;;;5036069;28;20198;-80
2023/05/05 14:04:53;;;;;;;2.95;1.40;;;;;;;;;;5049965;28;20192;-80
2023/05/05 14:07:20;;;;;;;2.70;1.23;;;;;;;;;;5057440;28;20211;-74
2023/05/05 14:09:45;;;;;;;5.28;1.60;;;;;;;;;;5050209;28;20279;-78
2023/05/05 14:12:11;;;;;;;2.67;1.35;;;;;;;;;;5044718;28;20252;-79
2023/05/05 14:14:36;;;;;;;6.45;1.55;;;;;;;;;;5052591;28;20315;-79
2023/05/05 14:17:02;;;;;;;2.47;1.42;;;;;;;;;;5038167;28;20235;-80
2023/05/05 14:19:27;;;;;;;2.80;1.30;;;;;;;;;;5028982;28;20229;-79
2023/05/05 14:21:52;;;;;;;2.28;1.23;;;;;;;;;;5033331;28;20628;-78
2023/05/05 14:24:18;;;;;;;2.72;1.10;;;;;;;;;;5038537;28;20198;-78
2023/05/05 14:26:43;;;;;;;3.20;1.10;;;;;;;;;;5059252;28;20253;-77
2023/05/05 14:29:08;;;;;;;2.63;1.50;;;;;;;;;;5045232;28;20201;-77
2023/05/05 14:31:35;;;;;;;3.95;2.00;;;;;;;;;;5047826;28;20208;-77
2023/05/05 14:34:01;;;;;;;1.90;1.42;;;;;;;;;;5027203;28;20693;-76
2023/05/05 14:36:26;;;;;;;3.25;2.20;;;;;;;;;;5047948;28;20212;-76